Time;durP1;ratioP1;P1;durP2;ratioP2;P2;SDS_P1;SDS_P2;PMS_P1;PMS_P2;Temp;Humidity;BMP_temperature;BMP_pressure;BME280_temperature;BME280_humidity;BME280_pressure;Samples;Min_cycle;Max_cycle;Signal;HPM_P1;HPM_P2
2023/10/09 00:01:28;;;;;;;;;;;12.10;99.90;;;;;;4966627;28;20368;-73
2023/10/09 00:03:54;;;;;;;;;;;12.10;99.90;;;;;;4970648;28;20380;-73
2023/10/09 00:06:30;;;;;;;;;;;12.10;99.90;;;;;;4971237;28;20000;-73
2023/10/09 00:08:58;;;;;;;;;;;12.10;99.90;;;;;;4969379;28;19909;-73
2023/10/09 00:11:29;;;;;;;;;;;12.00;99.90;;;;;;4971454;28;20597;-74
2023/10/09 00:13:58;;;;;;;;;;;12.00;99.90;;;;;;4968758;28;20387;-73
2023/10/09 00:16:34;;;;;;;;;;;12.00;99.90;;;;;;4972823;28;19940;-73
2023/10/09 00:19:14;;;;;;;;;;;11.90;99.90;;;;;;4973716;28;19910;-75
2023/10/09 00:21:46;;;;;;;;;;;11.80;99.90;;;;;;4969289;28;19914;-74
2023/10/09 00:24:24;;;;;;;;;;;11.80;99.90;;;;;;4975034;28;19933;-73
2023/10/09 00:27:11;;;;;;;;;;;11.80;99.90;;;;;;4968349;28;20266;-72
2023/10/09 00:29:43;;;;;;;;;;;11.80;99.90;;;;;;4975325;28;19981;-73
2023/10/09 00:32:27;;;;;;;;;;;11.80;99.90;;;;;;4967197;28;19961;-73
2023/10/09 00:34:58;;;;;;;;;;;11.80;99.90;;;;;;4972679;28;19914;-74
2023/10/09 00:37:25;;;;;;;;;;;11.80;99.90;;;;;;4974469;28;20365;-73
2023/10/09 00:39:57;;;;;;;;;;;11.80;99.90;;;;;;4974530;28;20000;-73
2023/10/09 00:42:42;;;;;;;;;;;11.70;99.90;;;;;;4971992;28;19924;-72
2023/10/09 00:45:10;;;;;;;;;;;11.70;99.90;;;;;;4972879;28;19929;-75
2023/10/09 00:47:40;;;;;;;;;;;11.60;99.90;;;;;;4962696;28;19933;-74
2023/10/09 00:52:49;;;;;;;;;;;11.70;99.90;;;;;;4967954;28;19918;-74
2023/10/09 00:55:20;;;;;;;;;;;11.80;99.90;;;;;;4972447;28;19976;-73
2023/10/09 00:58:36;;;;;;;;;;;11.70;99.90;;;;;;4972069;28;19916;-73
2023/10/09 01:00:32;;;;;;;;;;;11.60;99.90;;;;;;4965178;28;21262;-73
2023/10/09 01:05:51;;;;;;;;;;;11.60;99.90;;;;;;4973352;28;19922;-74
2023/10/09 01:08:25;;;;;;;;;;;11.80;99.90;;;;;;4968875;28;19914;-72
2023/10/09 01:10:56;;;;;;;;;;;11.80;99.90;;;;;;4971991;28;20353;-74
2023/10/09 01:13:38;;;;;;;;;;;11.90;99.90;;;;;;4968628;28;19914;-73
2023/10/09 01:16:15;;;;;;;;;;;12.00;99.90;;;;;;4968591;28;20013;-73
2023/10/09 01:18:43;;;;;;;;;;;12.00;99.90;;;;;;4971703;28;19923;-74
2023/10/09 01:21:13;;;;;;;;;;;12.10;99.90;;;;;;4970731;28;19955;-73
2023/10/09 01:23:58;;;;;;;;;;;12.10;99.90;;;;;;4969115;28;19973;-74
2023/10/09 01:26:25;;;;;;;;;;;12.20;99.90;;;;;;4971943;28;20288;-73
2023/10/09 01:28:50;;;;;;;;;;;12.30;99.90;;;;;;4974541;28;19940;-74
2023/10/09 01:31:17;;;;;;;;;;;12.30;99.90;;;;;;4971138;28;20281;-74
2023/10/09 01:33:46;;;;;;;;;;;12.40;99.90;;;;;;4972724;28;19914;-74
2023/10/09 01:36:15;;;;;;;;;;;12.40;99.90;;;;;;4972414;28;20748;-73
2023/10/09 01:38:41;;;;;;;;;;;12.20;99.90;;;;;;4975270;28;20396;-73
2023/10/09 01:41:08;;;;;;;;;;;12.10;99.90;;;;;;4972871;28;19915;-74
2023/10/09 01:43:34;;;;;;;;;;;12.10;99.90;;;;;;4969964;28;19929;-73
2023/10/09 01:46:01;;;;;;;;;;;12.10;99.90;;;;;;4967450;28;19918;-73
2023/10/09 01:48:27;;;;;;;;;;;12.10;99.90;;;;;;4975704;28;19917;-74
2023/10/09 01:50:53;;;;;;;;;;;12.00;99.90;;;;;;4969957;28;19910;-74
2023/10/09 01:53:22;;;;;;;;;;;12.00;99.90;;;;;;4967731;28;19965;-73
2023/10/09 01:55:47;;;;;;;;;;;12.00;99.90;;;;;;4977129;28;19914;-73
2023/10/09 02:00:56;;;;;;;;;;;12.00;99.90;;;;;;4978321;28;19914;-73
2023/10/09 02:03:36;;;;;;;;;;;12.00;99.90;;;;;;4972274;28;19920;-73
2023/10/09 02:06:17;;;;;;;;;;;12.00;99.90;;;;;;4974445;28;19921;-73
2023/10/09 02:08:49;;;;;;;;;;;12.00;99.90;;;;;;4975167;28;19960;-74
2023/10/09 02:11:24;;;;;;;;;;;12.10;99.90;;;;;;4975672;28;20324;-74
2023/10/09 02:14:01;;;;;;;;;;;12.10;99.90;;;;;;4955760;28;19917;-73
2023/10/09 02:16:29;;;;;;;;;;;12.20;99.90;;;;;;4972065;28;19914;-73
2023/10/09 02:18:58;;;;;;;;;;;12.20;99.90;;;;;;4970128;28;20024;-73
2023/10/09 02:21:33;;;;;;;;;;;12.20;99.90;;;;;;4979983;28;19921;-74
2023/10/09 02:24:07;;;;;;;;;;;12.30;99.90;;;;;;4974400;28;19914;-74
2023/10/09 02:29:14;;;;;;;;;;;12.20;99.90;;;;;;4974308;28;19918;-74
2023/10/09 02:31:51;;;;;;;;;;;12.10;99.90;;;;;;4976657;28;20004;-74
2023/10/09 02:34:21;;;;;;;;;;;12.00;99.90;;;;;;4974652;28;20015;-74
2023/10/09 02:36:57;;;;;;;;;;;12.10;99.90;;;;;;4978406;28;19910;-75
2023/10/09 02:39:26;;;;;;;;;;;12.10;99.90;;;;;;4972966;28;20000;-74
2023/10/09 02:41:55;;;;;;;;;;;12.00;99.90;;;;;;4973448;28;20759;-73
2023/10/09 02:44:34;;;;;;;;;;;12.10;99.90;;;;;;4980202;28;19925;-74
2023/10/09 02:47:05;;;;;;;;;;;12.10;99.90;;;;;;4975879;28;20354;-74
2023/10/09 02:49:30;;;;;;;;;;;12.10;99.90;;;;;;4969149;28;19917;-74
2023/10/09 02:51:56;;;;;;;;;;;12.10;99.90;;;;;;4972411;28;19910;-74
2023/10/09 02:56:55;;;;;;;;;;;12.00;99.90;;;;;;4977193;28;20574;-74
2023/10/09 02:59:22;;;;;;;;;;;12.00;99.90;;;;;;4959244;28;20432;-73
2023/10/09 03:01:48;;;;;;;;;;;12.00;99.90;;;;;;4973370;28;20273;-74
2023/10/09 03:04:14;;;;;;;;;;;11.90;99.90;;;;;;4972727;28;19914;-75
2023/10/09 03:06:49;;;;;;;;;;;12.00;99.90;;;;;;4956045;28;19914;-74
2023/10/09 03:09:18;;;;;;;;;;;11.90;99.90;;;;;;4975530;28;19917;-77
2023/10/09 03:11:46;;;;;;;;;;;11.80;99.90;;;;;;4980520;28;19909;-74
2023/10/09 03:14:13;;;;;;;;;;;11.80;99.90;;;;;;4977473;28;19960;-76
2023/10/09 03:16:38;;;;;;;;;;;11.70;99.90;;;;;;4978369;28;19930;-74
2023/10/09 03:19:04;;;;;;;;;;;11.70;99.90;;;;;;4972964;28;19915;-74
2023/10/09 03:21:30;;;;;;;;;;;11.70;99.90;;;;;;4979026;28;20356;-73
2023/10/09 03:23:56;;;;;;;;;;;11.80;99.90;;;;;;4976180;28;20333;-74
2023/10/09 03:26:25;;;;;;;;;;;11.80;99.90;;;;;;4975029;28;19910;-75
2023/10/09 03:28:52;;;;;;;;;;;11.80;99.90;;;;;;4976060;28;20537;-74
2023/10/09 03:31:18;;;;;;;;;;;11.80;99.90;;;;;;4972980;28;20121;-74
2023/10/09 03:33:43;;;;;;;;;;;11.80;99.90;;;;;;4977107;28;20093;-74
2023/10/09 03:36:09;;;;;;;;;;;11.80;99.90;;;;;;4968409;28;20411;-74
2023/10/09 03:38:42;;;;;;;;;;;11.70;99.90;;;;;;4971794;28;19914;-76
2023/10/09 03:41:12;;;;;;;;;;;11.70;99.90;;;;;;4979193;28;20389;-77
2023/10/09 03:43:40;;;;;;;;;;;11.70;99.90;;;;;;4976721;28;19914;-76
2023/10/09 03:46:20;;;;;;;;;;;11.60;99.90;;;;;;4973484;28;20446;-75
2023/10/09 03:48:49;;;;;;;;;;;11.60;99.90;;;;;;4971363;28;19957;-75
2023/10/09 03:51:21;;;;;;;;;;;11.50;99.90;;;;;;4980525;28;19917;-75
2023/10/09 03:53:53;;;;;;;;;;;11.50;99.90;;;;;;4972720;28;20001;-74
2023/10/09 03:56:21;;;;;;;;;;;11.40;99.90;;;;;;4975105;28;20396;-74
2023/10/09 03:58:50;;;;;;;;;;;11.40;99.90;;;;;;4971132;28;20000;-76
2023/10/09 04:01:37;;;;;;;;;;;11.40;99.90;;;;;;4975137;28;19913;-74
2023/10/09 04:04:05;;;;;;;;;;;11.30;99.90;;;;;;4960570;28;20020;-74
2023/10/09 04:06:32;;;;;;;;;;;11.40;99.90;;;;;;4976775;28;20336;-76
2023/10/09 04:09:13;;;;;;;;;;;11.40;99.90;;;;;;4966579;28;19969;-75
2023/10/09 04:11:44;;;;;;;;;;;11.30;99.90;;;;;;4974636;28;19915;-74
2023/10/09 04:14:21;;;;;;;;;;;11.30;99.90;;;;;;4971401;28;19984;-74
2023/10/09 04:17:04;;;;;;;;;;;11.30;99.90;;;;;;4971327;28;19982;-74
2023/10/09 04:19:38;;;;;;;;;;;11.30;99.90;;;;;;4970008;28;19914;-74
2023/10/09 04:22:07;;;;;;;;;;;11.30;99.90;;;;;;4974036;28;20621;-74
2023/10/09 04:24:41;;;;;;;;;;;11.30;99.90;;;;;;4971505;28;20646;-75
2023/10/09 04:27:08;;;;;;;;;;;11.20;99.90;;;;;;4970481;28;20317;-75
2023/10/09 04:29:39;;;;;;;;;;;11.30;99.90;;;;;;4974197;28;20004;-75
2023/10/09 04:32:15;;;;;;;;;;;11.20;99.90;;;;;;4972733;28;20410;-75
2023/10/09 04:35:19;;;;;;;;;;;11.10;99.90;;;;;;4976465;28;19918;-75
2023/10/09 04:37:36;;;;;;;;;;;11.10;99.90;;;;;;4977967;28;19910;-75
2023/10/09 04:40:12;;;;;;;;;;;11.00;99.90;;;;;;4975240;28;19929;-74
2023/10/09 04:42:38;;;;;;;;;;;11.00;99.90;;;;;;4976253;28;19922;-76
2023/10/09 04:47:35;;;;;;;;;;;10.90;99.90;;;;;;4975827;28;19918;-75
2023/10/09 04:50:27;;;;;;;;;;;10.80;99.90;;;;;;4977747;28;20004;-75
2023/10/09 04:52:52;;;;;;;;;;;10.80;99.90;;;;;;4977946;28;19993;-74
2023/10/09 04:55:24;;;;;;;;;;;10.80;99.90;;;;;;4972636;28;19996;-74
2023/10/09 04:58:09;;;;;;;;;;;10.80;99.90;;;;;;4971171;28;19949;-85
2023/10/09 05:03:09;;;;;;;;;;;10.80;99.90;;;;;;4974249;28;19914;-75
2023/10/09 05:08:19;;;;;;;;;;;10.80;99.90;;;;;;4969295;28;19914;-74
2023/10/09 05:16:13;;;;;;;;;;;10.70;99.90;;;;;;4977970;28;19917;-77
2023/10/09 05:18:55;;;;;;;;;;;10.80;99.90;;;;;;4966607;28;20666;-75
2023/10/09 05:37:34;;;;;;;;;;;11.00;99.90;;;;;;4970659;28;19910;-76
2023/10/09 05:48:06;;;;;;;;;;;11.30;99.90;;;;;;4962713;28;19917;-75
2023/10/09 05:50:34;;;;;;;;;;;11.50;99.90;;;;;;4973910;28;21375;-74
2023/10/09 05:53:06;;;;;;;;;;;12.00;99.90;;;;;;4965723;28;19969;-75
2023/10/09 06:03:54;;;;;;;;;;;13.80;99.90;;;;;;4972774;28;19941;-75
2023/10/09 06:06:42;;;;;;;;;;;14.50;99.90;;;;;;4971988;28;20536;-75
2023/10/09 06:11:39;;;;;;;;;;;16.00;99.90;;;;;;4971376;28;19914;-75
2023/10/09 06:19:27;;;;;;;;;;;17.00;99.90;;;;;;4972965;28;19938;-75
2023/10/09 06:30:23;;;;;;;;;;;19.20;99.90;;;;;;4966974;28;19918;-75
2023/10/09 06:32:50;;;;;;;;;;;19.00;99.20;;;;;;4962496;28;20006;-76
2023/10/09 06:35:16;;;;;;;;;;;18.00;99.90;;;;;;4975106;28;19918;-75
2023/10/09 06:43:09;;;;;;;;;;;17.30;99.90;;;;;;4976809;28;20554;-77
2023/10/09 06:45:43;;;;;;;;;;;17.10;99.90;;;;;;4967997;28;20345;-75
2023/10/09 06:48:40;;;;;;;;;;;16.70;99.90;;;;;;4973381;28;19918;-75
2023/10/09 06:50:55;;;;;;;;;;;16.70;99.90;;;;;;4972023;28;19910;-76
2023/10/09 06:53:25;;;;;;;;;;;17.80;99.90;;;;;;4978736;28;20414;-74
2023/10/09 06:56:05;;;;;;;;;;;18.70;99.90;;;;;;4974631;28;20064;-76
2023/10/09 06:58:41;;;;;;;;;;;18.80;98.80;;;;;;4970115;28;20222;-78
2023/10/09 07:01:25;;;;;;;;;;;18.20;98.90;;;;;;4974571;28;20346;-78
2023/10/09 07:03:59;;;;;;;;;;;17.00;99.90;;;;;;4973529;28;19953;-76
2023/10/09 07:06:48;;;;;;;;;;;16.50;99.90;;;;;;4964910;28;19914;-77
2023/10/09 07:14:07;;;;;;;;;;;17.30;99.90;;;;;;4971799;28;20366;-77
2023/10/09 07:16:38;;;;;;;;;;;16.90;99.90;;;;;;4972835;28;19925;-77
2023/10/09 07:19:35;;;;;;;;;;;16.70;99.90;;;;;;4971597;28;19914;-77
2023/10/09 07:22:02;;;;;;;;;;;16.80;99.90;;;;;;4975162;28;19906;-76
2023/10/09 07:24:37;;;;;;;;;;;17.10;99.90;;;;;;4976343;28;19917;-76
2023/10/09 07:27:10;;;;;;;;;;;17.90;99.90;;;;;;4971885;28;19919;-76
2023/10/09 07:29:47;;;;;;;;;;;18.60;99.60;;;;;;4975170;28;19938;-76
2023/10/09 07:32:19;;;;;;;;;;;19.60;98.00;;;;;;4972817;28;19910;-76
2023/10/09 07:34:52;;;;;;;;;;;19.60;97.30;;;;;;4972697;28;19921;-77
2023/10/09 07:37:35;;;;;;;;;;;19.70;97.70;;;;;;4953342;28;20429;-77
2023/10/09 07:40:07;;;;;;;;;;;20.30;96.30;;;;;;4971517;28;19913;-77
2023/10/09 07:42:37;;;;;;;;;;;20.20;96.20;;;;;;4972030;28;20025;-78
2023/10/09 07:45:54;;;;;;;;;;;21.30;95.00;;;;;;4971477;28;19974;-77
2023/10/09 07:50:37;;;;;;;;;;;22.80;93.10;;;;;;4970881;28;19956;-76
2023/10/09 07:53:26;;;;;;;;;;;24.10;90.70;;;;;;4974378;28;20417;-74
2023/10/09 07:56:06;;;;;;;;;;;23.80;89.00;;;;;;4975097;28;19913;-73
2023/10/09 07:58:33;;;;;;;;;;;23.00;89.60;;;;;;4974591;28;19910;-76
2023/10/09 08:01:08;;;;;;;;;;;21.50;90.90;;;;;;4972874;28;20332;-76
2023/10/09 08:03:37;;;;;;;;;;;21.00;92.00;;;;;;4973374;28;20320;-77
2023/10/09 08:09:46;;;;;;;;;;;22.40;90.60;;;;;;4974853;28;20285;-73
2023/10/09 08:17:16;;;;;;;;;;;25.60;83.00;;;;;;4975156;28;19909;-73
2023/10/09 08:19:54;;;;;;;;;;;25.30;80.90;;;;;;4973467;28;19926;-73
2023/10/09 08:24:56;;;;;;;;;;;25.80;80.40;;;;;;4970097;28;19909;-78
2023/10/09 08:33:00;;;;;;;;;;;26.60;76.40;;;;;;4970831;28;20312;-77
2023/10/09 08:35:47;;;;;;;;;;;25.70;78.20;;;;;;4975295;28;19910;-77
2023/10/09 08:38:13;;;;;;;;;;;26.40;77.40;;;;;;4972005;28;20365;-77
2023/10/09 08:40:43;;;;;;;;;;;28.00;75.40;;;;;;4970196;28;20452;-78
2023/10/09 08:43:17;;;;;;;;;;;28.10;73.40;;;;;;4972907;28;20140;-77
2023/10/09 08:45:53;;;;;;;;;;;27.70;74.30;;;;;;4969608;28;19957;-77
2023/10/09 08:48:21;;;;;;;;;;;28.60;73.90;;;;;;4964627;28;19949;-78
2023/10/09 08:50:50;;;;;;;;;;;28.40;73.00;;;;;;4970071;28;20468;-77
2023/10/09 08:53:16;;;;;;;;;;;28.80;71.60;;;;;;4973583;28;20357;-78
2023/10/09 08:55:43;;;;;;;;;;;28.20;72.00;;;;;;4974438;28;19941;-75
2023/10/09 08:58:19;;;;;;;;;;;26.90;73.70;;;;;;4968918;28;19968;-75
2023/10/09 09:00:46;;;;;;;;;;;26.70;73.70;;;;;;4969871;28;20297;-75
2023/10/09 09:03:12;;;;;;;;;;;25.90;74.80;;;;;;4975741;28;20305;-74
2023/10/09 09:05:37;;;;;;;;;;;24.90;76.20;;;;;;4972809;28;19917;-75
2023/10/09 09:08:03;;;;;;;;;;;23.80;78.40;;;;;;4972667;28;19918;-77
2023/10/09 09:10:35;;;;;;;;;;;23.50;80.50;;;;;;4968094;28;20384;-76
2023/10/09 09:13:03;;;;;;;;;;;23.40;80.60;;;;;;4974060;28;19956;-77
2023/10/09 09:15:29;;;;;;;;;;;23.00;81.20;;;;;;4970837;28;19996;-76
2023/10/09 09:18:17;;;;;;;;;;;22.20;83.30;;;;;;4972875;28;19914;-77
2023/10/09 09:20:46;;;;;;;;;;;21.20;86.10;;;;;;4972494;28;19909;-76
2023/10/09 09:23:12;;;;;;;;;;;20.50;88.50;;;;;;4972218;28;19937;-76
2023/10/09 09:25:45;;;;;;;;;;;20.50;89.50;;;;;;4974825;28;19936;-79
2023/10/09 09:28:19;;;;;;;;;;;20.50;90.20;;;;;;4972282;28;19957;-77
2023/10/09 09:30:50;;;;;;;;;;;20.10;90.50;;;;;;4968626;28;19909;-77
2023/10/09 09:33:32;;;;;;;;;;;19.70;91.50;;;;;;4969929;28;19921;-77
2023/10/09 09:36:02;;;;;;;;;;;19.20;92.70;;;;;;4968176;28;19913;-77
2023/10/09 09:38:28;;;;;;;;;;;19.10;93.40;;;;;;4974331;28;20277;-75
2023/10/09 09:40:56;;;;;;;;;;;19.10;94.90;;;;;;4972394;28;19910;-76
2023/10/09 09:43:22;;;;;;;;;;;19.50;95.00;;;;;;4971647;28;20005;-77
2023/10/09 09:45:49;;;;;;;;;;;19.90;95.40;;;;;;4966121;28;19992;-76
2023/10/09 09:48:16;;;;;;;;;;;20.50;95.20;;;;;;4972211;28;19914;-77
2023/10/09 09:50:47;;;;;;;;;;;21.10;94.30;;;;;;4971247;28;20341;-76
2023/10/09 09:53:16;;;;;;;;;;;21.80;93.70;;;;;;4978830;28;19914;-76
2023/10/09 09:55:51;;;;;;;;;;;22.30;93.00;;;;;;4981814;28;19918;-76
2023/10/09 09:58:23;;;;;;;;;;;22.80;92.40;;;;;;4973317;28;20662;-73
2023/10/09 10:01:00;;;;;;;;;;;23.10;91.80;;;;;;4963847;28;19914;-72
2023/10/09 10:03:36;;;;;;;;;;;23.20;91.30;;;;;;4968100;28;19917;-73
2023/10/09 10:06:09;;;;;;;;;;;23.00;91.60;;;;;;4968322;28;19910;-74
2023/10/09 10:08:35;;;;;;;;;;;22.70;91.80;;;;;;4969618;28;19915;-74
2023/10/09 10:11:14;;;;;;;;;;;22.70;91.80;;;;;;4969962;28;20153;-74
2023/10/09 10:13:42;;;;;;;;;;;22.50;91.80;;;;;;4968209;28;19958;-73
2023/10/09 10:16:13;;;;;;;;;;;22.30;92.20;;;;;;4973166;28;20008;-73
2023/10/09 10:19:06;;;;;;;;;;;22.20;92.30;;;;;;4978362;28;19958;-71
2023/10/09 10:21:48;;;;;;;;;;;22.10;92.70;;;;;;4977831;28;19918;-70
2023/10/09 10:24:29;;;;;;;;;;;22.10;92.60;;;;;;4975034;28;19918;-69
2023/10/09 10:27:09;;;;;;;;;;;22.20;92.90;;;;;;4969506;28;20254;-69
2023/10/09 10:29:38;;;;;;;;;;;21.80;92.90;;;;;;4973798;28;20490;-69
2023/10/09 10:32:08;;;;;;;;;;;21.80;93.40;;;;;;4970360;28;19918;-71
2023/10/09 10:34:58;;;;;;;;;;;21.80;93.60;;;;;;4972989;28;20008;-72
2023/10/09 10:37:38;;;;;;;;;;;21.50;93.70;;;;;;4977559;28;20006;-74
2023/10/09 10:40:14;;;;;;;;;;;22.00;94.10;;;;;;4974111;28;19910;-73
2023/10/09 10:43:09;;;;;;;;;;;22.80;92.80;;;;;;4970465;28;19991;-70
2023/10/09 10:45:35;;;;;;;;;;;23.00;92.30;;;;;;4971852;28;19965;-70
2023/10/09 10:48:06;;;;;;;;;;;22.70;92.00;;;;;;4978186;28;19917;-70
2023/10/09 10:53:16;;;;;;;;;;;21.90;92.80;;;;;;4973521;28;19910;-71
2023/10/09 10:55:56;;;;;;;;;;;21.70;93.10;;;;;;4971865;28;19938;-71
2023/10/09 10:58:25;;;;;;;;;;;21.70;93.10;;;;;;4967617;28;19914;-72
2023/10/09 11:04:12;;;;;;;;;;;21.30;94.40;;;;;;4972024;28;19918;-73
2023/10/09 11:06:15;;;;;;;;;;;20.90;95.30;;;;;;4966032;28;19914;-74
2023/10/09 11:08:54;;;;;;;;;;;20.70;96.50;;;;;;4973601;28;20650;-73
2023/10/09 11:11:41;;;;;;;;;;;20.40;97.70;;;;;;4968915;28;19938;-73
2023/10/09 11:14:14;;;;;;;;;;;20.30;98.60;;;;;;4970395;28;20013;-73
2023/10/09 11:16:41;;;;;;;;;;;20.20;99.60;;;;;;4972310;28;19914;-73
2023/10/09 11:19:29;;;;;;;;;;;20.10;99.90;;;;;;4970410;28;19910;-73
2023/10/09 11:21:59;;;;;;;;;;;20.00;99.90;;;;;;4972804;28;19936;-74
2023/10/09 11:24:33;;;;;;;;;;;19.90;99.90;;;;;;4972365;28;20005;-73
2023/10/09 11:27:05;;;;;;;;;;;19.70;99.90;;;;;;4970024;28;19914;-73
2023/10/09 11:32:17;;;;;;;;;;;19.70;99.90;;;;;;4969363;28;19941;-73
2023/10/09 11:34:51;;;;;;;;;;;19.60;99.90;;;;;;4976812;28;19910;-73
2023/10/09 11:39:55;;;;;;;;;;;19.40;99.90;;;;;;4972673;28;19910;-72
2023/10/09 11:45:20;;;;;;;;;;;19.20;99.90;;;;;;4962729;28;19960;-73
2023/10/09 11:47:58;;;;;;;;;;;19.00;99.90;;;;;;4977138;28;19921;-73
2023/10/09 11:53:45;;;;;;;;;;;19.00;99.90;;;;;;4966807;28;19918;-73
2023/10/09 11:56:16;;;;;;;;;;;18.90;99.90;;;;;;4971341;28;19926;-73
2023/10/09 11:58:42;;;;;;;;;;;18.80;99.90;;;;;;4973677;28;19918;-73
2023/10/09 12:01:20;;;;;;;;;;;18.70;99.90;;;;;;4973542;28;20626;-73
2023/10/09 12:03:52;;;;;;;;;;;18.60;99.90;;;;;;4971644;28;20000;-73
2023/10/09 12:06:24;;;;;;;;;;;18.50;99.90;;;;;;4968462;28;20384;-73
2023/10/09 12:08:49;;;;;;;;;;;18.50;99.90;;;;;;4967886;28;19910;-73
2023/10/09 12:11:22;;;;;;;;;;;18.50;99.90;;;;;;4973147;28;20388;-73
2023/10/09 12:13:48;;;;;;;;;;;18.50;99.90;;;;;;4970168;28;20674;-73
2023/10/09 12:16:15;;;;;;;;;;;18.50;99.90;;;;;;4973993;28;20017;-74
2023/10/09 12:18:41;;;;;;;;;;;18.70;99.90;;;;;;4977888;28;20606;-73
2023/10/09 12:21:07;;;;;;;;;;;19.00;99.90;;;;;;4973837;28;19917;-74
2023/10/09 12:23:35;;;;;;;;;;;19.30;99.90;;;;;;4972180;28;21318;-74
2023/10/09 12:26:01;;;;;;;;;;;19.50;99.90;;;;;;4970199;28;19911;-74
2023/10/09 12:28:28;;;;;;;;;;;19.50;99.90;;;;;;4973964;28;19921;-74
2023/10/09 12:30:54;;;;;;;;;;;19.50;99.90;;;;;;4974051;28;19914;-75
2023/10/09 12:33:26;;;;;;;;;;;19.50;99.90;;;;;;4964572;28;19910;-74
2023/10/09 12:35:58;;;;;;;;;;;19.40;99.90;;;;;;4970107;28;19906;-77
2023/10/09 12:38:31;;;;;;;;;;;19.30;99.90;;;;;;4969230;28;19929;-75
2023/10/09 12:41:20;;;;;;;;;;;19.10;99.90;;;;;;4972101;28;20641;-74
2023/10/09 12:43:48;;;;;;;;;;;18.90;99.90;;;;;;4968105;28;19925;-76
2023/10/09 12:46:16;;;;;;;;;;;18.60;99.90;;;;;;4969251;28;19921;-75
2023/10/09 12:48:46;;;;;;;;;;;18.30;99.90;;;;;;4973913;28;19957;-74
2023/10/09 12:51:16;;;;;;;;;;;18.10;99.90;;;;;;4973042;28;20593;-74
2023/10/09 12:53:44;;;;;;;;;;;17.90;99.90;;;;;;4974130;28;19918;-74
2023/10/09 12:56:11;;;;;;;;;;;17.60;99.90;;;;;;4973575;28;19929;-74
2023/10/09 12:58:37;;;;;;;;;;;17.50;99.90;;;;;;4970109;28;20285;-75
2023/10/09 13:01:09;;;;;;;;;;;17.30;99.90;;;;;;4972907;28;19918;-75
2023/10/09 13:03:38;;;;;;;;;;;17.20;99.90;;;;;;4969118;28;19918;-75
2023/10/09 13:06:07;;;;;;;;;;;17.10;99.90;;;;;;4973875;28;20312;-75
2023/10/09 13:08:35;;;;;;;;;;;17.00;99.90;;;;;;4966508;28;19922;-74
2023/10/09 13:11:04;;;;;;;;;;;17.00;99.90;;;;;;4970855;28;19960;-75
2023/10/09 13:13:39;;;;;;;;;;;17.10;99.90;;;;;;4968976;28;20509;-75
2023/10/09 13:16:24;;;;;;;;;;;17.10;99.90;;;;;;4977069;28;19910;-75
2023/10/09 13:18:50;;;;;;;;;;;17.10;99.90;;;;;;4966671;28;19987;-75
2023/10/09 13:21:20;;;;;;;;;;;17.10;99.90;;;;;;4973268;28;19910;-73
2023/10/09 13:23:54;;;;;;;;;;;17.10;99.90;;;;;;4954478;28;19920;-73
2023/10/09 13:26:29;;;;;;;;;;;17.20;99.90;;;;;;4970656;28;19910;-72
2023/10/09 13:28:56;;;;;;;;;;;17.20;99.90;;;;;;4970051;28;19917;-77
2023/10/09 13:31:25;;;;;;;;;;;17.20;99.90;;;;;;4972877;28;20054;-76
2023/10/09 13:33:54;;;;;;;;;;;17.20;99.90;;;;;;4968421;28;19996;-72
2023/10/09 13:36:26;;;;;;;;;;;17.20;99.90;;;;;;4977853;28;20392;-76
2023/10/09 13:38:53;;;;;;;;;;;17.10;99.90;;;;;;4973901;28;19910;-75
2023/10/09 13:41:18;;;;;;;;;;;17.00;99.90;;;;;;4971158;28;20350;-74
2023/10/09 13:43:44;;;;;;;;;;;16.90;99.90;;;;;;4967814;28;19921;-74
2023/10/09 13:46:11;;;;;;;;;;;16.90;99.90;;;;;;4967311;28;20460;-76
2023/10/09 13:48:41;;;;;;;;;;;16.90;99.90;;;;;;4965795;28;19914;-74
2023/10/09 13:51:17;;;;;;;;;;;16.90;99.90;;;;;;4975008;28;19914;-75
2023/10/09 13:53:47;;;;;;;;;;;16.70;99.90;;;;;;4966237;28;19910;-74
2023/10/09 13:56:14;;;;;;;;;;;16.60;99.90;;;;;;4969312;28;19918;-75
2023/10/09 13:58:43;;;;;;;;;;;16.50;99.90;;;;;;4970759;28;19910;-75
2023/10/09 14:01:20;;;;;;;;;;;16.50;99.90;;;;;;4970259;28;19918;-75
2023/10/09 14:03:49;;;;;;;;;;;16.50;99.90;;;;;;4967138;28;19941;-75
2023/10/09 14:06:19;;;;;;;;;;;16.50;99.90;;;;;;4970388;28;19914;-74
2023/10/09 14:08:45;;;;;;;;;;;16.60;99.90;;;;;;4970774;28;19914;-75
2023/10/09 14:11:13;;;;;;;;;;;16.60;99.90;;;;;;4968548;28;20645;-75
2023/10/09 14:13:39;;;;;;;;;;;16.60;99.90;;;;;;4964855;28;19914;-75
2023/10/09 14:16:05;;;;;;;;;;;16.60;99.90;;;;;;4972899;28;19910;-75
2023/10/09 14:18:31;;;;;;;;;;;16.60;99.90;;;;;;4970637;28;19917;-74
2023/10/09 14:21:04;;;;;;;;;;;16.70;99.90;;;;;;4967245;28;19910;-75
2023/10/09 14:23:34;;;;;;;;;;;16.60;99.90;;;;;;4968683;28;19918;-76
2023/10/09 14:26:01;;;;;;;;;;;16.60;99.90;;;;;;4968080;28;19937;-75
2023/10/09 14:28:28;;;;;;;;;;;16.50;99.90;;;;;;4969398;28;19946;-76
2023/10/09 14:30:59;;;;;;;;;;;16.50;99.90;;;;;;4971706;28;19913;-75
2023/10/09 14:33:27;;;;;;;;;;;16.40;99.90;;;;;;4964424;28;19983;-75
2023/10/09 14:35:54;;;;;;;;;;;16.40;99.90;;;;;;4965655;28;20353;-74
2023/10/09 14:38:26;;;;;;;;;;;16.20;99.90;;;;;;4968307;28;19914;-74
2023/10/09 14:40:57;;;;;;;;;;;16.20;99.90;;;;;;4961047;28;19914;-74
2023/10/09 14:43:27;;;;;;;;;;;16.20;99.90;;;;;;4970587;28;19928;-74
2023/10/09 14:45:54;;;;;;;;;;;16.20;99.90;;;;;;4964977;28;19980;-74
2023/10/09 14:48:25;;;;;;;;;;;16.20;99.90;;;;;;4973473;28;19920;-75
2023/10/09 14:50:54;;;;;;;;;;;16.20;99.90;;;;;;4970501;28;19910;-74
2023/10/09 14:53:21;;;;;;;;;;;16.20;99.90;;;;;;4968924;28;19976;-75
2023/10/09 14:55:47;;;;;;;;;;;16.20;99.90;;;;;;4968128;28;20281;-74
2023/10/09 14:58:13;;;;;;;;;;;16.20;99.90;;;;;;4971627;28;19916;-74
2023/10/09 15:00:45;;;;;;;;;;;16.10;99.90;;;;;;4975733;28;19914;-75
2023/10/09 15:03:14;;;;;;;;;;;16.10;99.90;;;;;;4976970;28;19961;-69
2023/10/09 15:05:42;;;;;;;;;;;16.10;99.90;;;;;;4971147;28;20354;-68
2023/10/09 15:08:11;;;;;;;;;;;16.20;99.90;;;;;;4970484;28;19914;-69
2023/10/09 15:10:57;;;;;;;;;;;16.20;99.90;;;;;;4971737;28;19914;-69
2023/10/09 15:13:27;;;;;;;;;;;16.20;99.90;;;;;;4965304;28;20373;-68
2023/10/09 15:15:54;;;;;;;;;;;16.20;99.90;;;;;;4953724;28;19948;-68
2023/10/09 15:18:21;;;;;;;;;;;16.20;99.90;;;;;;4973020;28;20423;-69
2023/10/09 15:20:47;;;;;;;;;;;16.20;99.90;;;;;;4975471;28;20440;-68
2023/10/09 15:23:13;;;;;;;;;;;16.20;99.90;;;;;;4970272;28;20000;-68
2023/10/09 15:25:45;;;;;;;;;;;16.20;99.90;;;;;;4970249;28;19918;-68
2023/10/09 15:28:12;;;;;;;;;;;16.30;99.90;;;;;;4972109;28;19917;-68
2023/10/09 15:30:38;;;;;;;;;;;16.30;99.90;;;;;;4972341;28;19920;-68
2023/10/09 15:33:05;;;;;;;;;;;16.30;99.90;;;;;;4971107;28;20325;-68
2023/10/09 15:35:33;;;;;;;;;;;16.30;99.90;;;;;;4968441;28;19959;-68
2023/10/09 15:38:05;;;;;;;;;;;16.30;99.90;;;;;;4973409;28;19920;-74
2023/10/09 15:40:34;;;;;;;;;;;16.40;99.90;;;;;;4968069;28;19980;-73
2023/10/09 15:43:01;;;;;;;;;;;16.30;99.90;;;;;;4972316;28;19972;-75
2023/10/09 15:45:28;;;;;;;;;;;16.20;99.90;;;;;;4970363;28;19918;-74
2023/10/09 15:47:54;;;;;;;;;;;16.20;99.90;;;;;;4972653;28;20385;-72
2023/10/09 15:50:23;;;;;;;;;;;16.10;99.90;;;;;;4972791;28;19910;-72
2023/10/09 15:52:51;;;;;;;;;;;16.10;99.90;;;;;;4966330;28;19914;-73
2023/10/09 15:55:20;;;;;;;;;;;16.10;99.90;;;;;;4971049;28;19917;-73
2023/10/09 15:57:46;;;;;;;;;;;16.00;99.90;;;;;;4963825;28;19914;-73
2023/10/09 16:00:17;;;;;;;;;;;16.00;99.90;;;;;;4973969;28;20391;-72
2023/10/09 16:02:43;;;;;;;;;;;16.00;99.90;;;;;;4977167;28;20365;-73
2023/10/09 16:05:11;;;;;;;;;;;16.00;99.90;;;;;;4967918;28;19917;-73
2023/10/09 16:07:40;;;;;;;;;;;16.00;99.90;;;;;;4967403;28;19954;-72
2023/10/09 16:10:09;;;;;;;;;;;16.00;99.90;;;;;;4974719;28;19910;-73
2023/10/09 16:12:38;;;;;;;;;;;15.90;99.90;;;;;;4969924;28;19925;-72
2023/10/09 16:15:08;;;;;;;;;;;16.00;99.90;;;;;;4976407;28;20243;-73
2023/10/09 16:17:34;;;;;;;;;;;16.00;99.90;;;;;;4974858;28;19921;-73
2023/10/09 16:20:00;;;;;;;;;;;16.00;99.90;;;;;;4968072;28;19910;-73
2023/10/09 16:22:28;;;;;;;;;;;16.00;99.90;;;;;;4971937;28;20004;-73
2023/10/09 16:24:59;;;;;;;;;;;16.00;99.90;;;;;;4970755;28;20036;-74
2023/10/09 16:27:27;;;;;;;;;;;16.00;99.90;;;;;;4967828;28;19914;-74
2023/10/09 16:29:53;;;;;;;;;;;16.00;99.90;;;;;;4971802;28;19918;-74
2023/10/09 16:32:23;;;;;;;;;;;15.90;99.90;;;;;;4973365;28;19914;-76
2023/10/09 16:34:49;;;;;;;;;;;15.90;99.90;;;;;;4966989;28;19914;-74
2023/10/09 16:37:19;;;;;;;;;;;15.90;99.90;;;;;;4971166;28;19910;-73
2023/10/09 16:39:54;;;;;;;;;;;15.80;99.90;;;;;;4970339;28;20017;-74
2023/10/09 16:42:24;;;;;;;;;;;15.80;99.90;;;;;;4961857;28;19910;-73